sensor_id;sensor_type;location;lat;lon;timestamp;P1;durP1;ratioP1;P2;durP2;ratioP2
32138;SDS011;18644;48.700;9.210;2023-02-15T00:01:35;13.32;;;7.88;;
32138;SDS011;18644;48.700;9.210;2023-02-15T00:04:03;15.85;;;8.73;;
32138;SDS011;18644;48.700;9.210;2023-02-15T00:06:31;16.45;;;9.32;;
32138;SDS011;18644;48.700;9.210;2023-02-15T00:08:59;14.18;;;9.35;;
32138;SDS011;18644;48.700;9.210;2023-02-15T00:11:27;15.57;;;8.65;;
32138;SDS011;18644;48.700;9.210;2023-02-15T00:14:08;16.60;;;8.60;;
32138;SDS011;18644;48.700;9.210;2023-02-15T00:16:38;12.27;;;8.40;;
32138;SDS011;18644;48.700;9.210;2023-02-15T00:19:06;19.42;;;9.45;;
32138;SDS011;18644;48.700;9.210;2023-02-15T00:21:34;16.35;;;9.63;;
32138;SDS011;18644;48.700;9.210;2023-02-15T00:24:02;15.90;;;8.65;;
32138;SDS011;18644;48.700;9.210;2023-02-15T00:26:34;16.80;;;9.45;;
32138;SDS011;18644;48.700;9.210;2023-02-15T00:29:02;17.60;;;9.05;;
32138;SDS011;18644;48.700;9.210;2023-02-15T00:31:29;14.48;;;8.75;;
32138;SDS011;18644;48.700;9.210;2023-02-15T00:34:00;15.82;;;8.25;;
32138;SDS011;18644;48.700;9.210;2023-02-15T00:36:28;11.90;;;7.47;;
32138;SDS011;18644;48.700;9.210;2023-02-15T00:38:55;11.00;;;7.53;;
32138;SDS011;18644;48.700;9.210;2023-02-15T00:41:22;16.83;;;9.35;;
32138;SDS011;18644;48.700;9.210;2023-02-15T00:43:51;11.85;;;7.75;;
32138;SDS011;18644;48.700;9.210;2023-02-15T00:46:18;15.25;;;8.48;;
32138;SDS011;18644;48.700;9.210;2023-02-15T00:48:45;19.50;;;9.98;;
32138;SDS011;18644;48.700;9.210;2023-02-15T00:51:11;14.23;;;8.40;;
32138;SDS011;18644;48.700;9.210;2023-02-15T00:53:38;13.02;;;8.85;;
32138;SDS011;18644;48.700;9.210;2023-02-15T00:56:06;12.20;;;8.23;;
32138;SDS011;18644;48.700;9.210;2023-02-15T00:58:33;11.20;;;7.38;;
32138;SDS011;18644;48.700;9.210;2023-02-15T01:01:03;14.60;;;8.38;;
32138;SDS011;18644;48.700;9.210;2023-02-15T01:03:32;16.48;;;8.85;;
32138;SDS011;18644;48.700;9.210;2023-02-15T01:06:00;14.10;;;8.80;;
32138;SDS011;18644;48.700;9.210;2023-02-15T01:08:27;14.70;;;8.95;;
32138;SDS011;18644;48.700;9.210;2023-02-15T01:10:54;14.88;;;8.50;;
32138;SDS011;18644;48.700;9.210;2023-02-15T01:13:24;12.88;;;8.13;;
32138;SDS011;18644;48.700;9.210;2023-02-15T01:15:52;16.42;;;8.45;;
32138;SDS011;18644;48.700;9.210;2023-02-15T01:18:21;16.92;;;8.98;;
32138;SDS011;18644;48.700;9.210;2023-02-15T01:20:48;13.10;;;8.02;;
32138;SDS011;18644;48.700;9.210;2023-02-15T01:23:15;15.20;;;9.05;;
32138;SDS011;18644;48.700;9.210;2023-02-15T01:25:42;15.48;;;9.05;;
32138;SDS011;18644;48.700;9.210;2023-02-15T01:28:09;13.60;;;8.27;;
32138;SDS011;18644;48.700;9.210;2023-02-15T01:30:37;15.13;;;8.57;;
32138;SDS011;18644;48.700;9.210;2023-02-15T01:33:04;15.60;;;8.68;;
32138;SDS011;18644;48.700;9.210;2023-02-15T01:35:32;13.85;;;8.23;;
32138;SDS011;18644;48.700;9.210;2023-02-15T01:37:59;12.38;;;8.00;;
32138;SDS011;18644;48.700;9.210;2023-02-15T01:40:26;12.00;;;8.02;;
32138;SDS011;18644;48.700;9.210;2023-02-15T01:42:54;14.00;;;8.60;;
32138;SDS011;18644;48.700;9.210;2023-02-15T01:45:22;14.02;;;8.35;;
32138;SDS011;18644;48.700;9.210;2023-02-15T01:47:52;13.27;;;8.20;;
32138;SDS011;18644;48.700;9.210;2023-02-15T01:50:28;12.80;;;8.27;;
32138;SDS011;18644;48.700;9.210;2023-02-15T01:53:03;11.70;;;7.88;;
32138;SDS011;18644;48.700;9.210;2023-02-15T01:55:39;14.93;;;9.20;;
32138;SDS011;18644;48.700;9.210;2023-02-15T02:00:37;12.93;;;8.32;;
32138;SDS011;18644;48.700;9.210;2023-02-15T02:03:04;10.38;;;7.22;;
32138;SDS011;18644;48.700;9.210;2023-02-15T02:05:31;12.75;;;8.18;;
32138;SDS011;18644;48.700;9.210;2023-02-15T02:08:01;12.82;;;7.85;;
32138;SDS011;18644;48.700;9.210;2023-02-15T02:10:29;12.98;;;8.32;;
32138;SDS011;18644;48.700;9.210;2023-02-15T02:12:57;13.07;;;8.18;;
32138;SDS011;18644;48.700;9.210;2023-02-15T02:15:28;12.38;;;8.05;;
32138;SDS011;18644;48.700;9.210;2023-02-15T02:18:11;15.02;;;8.70;;
32138;SDS011;18644;48.700;9.210;2023-02-15T02:20:52;11.77;;;7.47;;
32138;SDS011;18644;48.700;9.210;2023-02-15T02:24:16;11.50;;;7.80;;
32138;SDS011;18644;48.700;9.210;2023-02-15T02:27:24;14.25;;;8.40;;
32138;SDS011;18644;48.700;9.210;2023-02-15T02:30:08;13.50;;;7.93;;
32138;SDS011;18644;48.700;9.210;2023-02-15T02:33:09;12.07;;;7.53;;
32138;SDS011;18644;48.700;9.210;2023-02-15T02:36:07;15.45;;;8.68;;
32138;SDS011;18644;48.700;9.210;2023-02-15T02:38:45;12.88;;;7.10;;
32138;SDS011;18644;48.700;9.210;2023-02-15T02:41:23;12.95;;;7.95;;
32138;SDS011;18644;48.700;9.210;2023-02-15T02:43:59;15.73;;;7.40;;
32138;SDS011;18644;48.700;9.210;2023-02-15T02:46:37;10.82;;;6.55;;
32138;SDS011;18644;48.700;9.210;2023-02-15T02:49:13;11.73;;;7.40;;
32138;SDS011;18644;48.700;9.210;2023-02-15T02:51:40;13.35;;;8.73;;
32138;SDS011;18644;48.700;9.210;2023-02-15T02:54:07;12.23;;;7.47;;
32138;SDS011;18644;48.700;9.210;2023-02-15T02:56:36;12.82;;;6.70;;
32138;SDS011;18644;48.700;9.210;2023-02-15T02:59:08;13.18;;;7.65;;
32138;SDS011;18644;48.700;9.210;2023-02-15T03:01:40;14.85;;;8.13;;
32138;SDS011;18644;48.700;9.210;2023-02-15T03:04:13;14.90;;;8.95;;
32138;SDS011;18644;48.700;9.210;2023-02-15T03:06:45;12.93;;;8.45;;
32138;SDS011;18644;48.700;9.210;2023-02-15T03:09:17;14.50;;;8.40;;
32138;SDS011;18644;48.700;9.210;2023-02-15T03:11:59;13.73;;;8.35;;
32138;SDS011;18644;48.700;9.210;2023-02-15T03:14:28;12.85;;;6.97;;
32138;SDS011;18644;48.700;9.210;2023-02-15T03:16:55;14.45;;;8.23;;
32138;SDS011;18644;48.700;9.210;2023-02-15T03:19:25;14.00;;;7.95;;
32138;SDS011;18644;48.700;9.210;2023-02-15T03:21:56;13.65;;;8.35;;
32138;SDS011;18644;48.700;9.210;2023-02-15T03:24:34;14.13;;;8.32;;
32138;SDS011;18644;48.700;9.210;2023-02-15T03:27:09;11.30;;;7.07;;
32138;SDS011;18644;48.700;9.210;2023-02-15T03:29:42;12.88;;;7.18;;
32138;SDS011;18644;48.700;9.210;2023-02-15T03:32:11;11.95;;;7.50;;
32138;SDS011;18644;48.700;9.210;2023-02-15T03:34:43;14.10;;;8.77;;
32138;SDS011;18644;48.700;9.210;2023-02-15T03:37:11;13.80;;;8.00;;
32138;SDS011;18644;48.700;9.210;2023-02-15T03:39:45;13.48;;;8.05;;
32138;SDS011;18644;48.700;9.210;2023-02-15T03:42:19;13.85;;;7.93;;
32138;SDS011;18644;48.700;9.210;2023-02-15T03:44:54;12.48;;;8.23;;
32138;SDS011;18644;48.700;9.210;2023-02-15T03:47:25;13.85;;;8.25;;
32138;SDS011;18644;48.700;9.210;2023-02-15T03:49:59;11.45;;;6.85;;
32138;SDS011;18644;48.700;9.210;2023-02-15T03:54:56;9.88;;;6.22;;
32138;SDS011;18644;48.700;9.210;2023-02-15T03:57:24;11.73;;;6.65;;
32138;SDS011;18644;48.700;9.210;2023-02-15T04:00:12;11.93;;;7.05;;
32138;SDS011;18644;48.700;9.210;2023-02-15T04:03:12;12.15;;;7.00;;
32138;SDS011;18644;48.700;9.210;2023-02-15T04:08:33;10.82;;;7.65;;
32138;SDS011;18644;48.700;9.210;2023-02-15T04:11:17;12.65;;;6.90;;
32138;SDS011;18644;48.700;9.210;2023-02-15T04:13:44;12.60;;;7.75;;
32138;SDS011;18644;48.700;9.210;2023-02-15T04:16:11;12.32;;;7.60;;
32138;SDS011;18644;48.700;9.210;2023-02-15T04:18:38;12.57;;;7.57;;
32138;SDS011;18644;48.700;9.210;2023-02-15T04:21:27;10.57;;;6.97;;
32138;SDS011;18644;48.700;9.210;2023-02-15T04:24:13;10.15;;;6.55;;
32138;SDS011;18644;48.700;9.210;2023-02-15T04:26:59;13.18;;;7.55;;
32138;SDS011;18644;48.700;9.210;2023-02-15T04:29:27;13.65;;;7.45;;
32138;SDS011;18644;48.700;9.210;2023-02-15T04:31:55;12.82;;;7.43;;
32138;SDS011;18644;48.700;9.210;2023-02-15T04:34:24;12.77;;;6.95;;
32138;SDS011;18644;48.700;9.210;2023-02-15T04:36:53;13.38;;;8.15;;
32138;SDS011;18644;48.700;9.210;2023-02-15T04:39:20;13.43;;;7.57;;
32138;SDS011;18644;48.700;9.210;2023-02-15T04:41:47;14.00;;;7.72;;
32138;SDS011;18644;48.700;9.210;2023-02-15T04:44:14;10.18;;;6.63;;
32138;SDS011;18644;48.700;9.210;2023-02-15T04:46:41;13.05;;;7.97;;
32138;SDS011;18644;48.700;9.210;2023-02-15T04:49:08;14.23;;;8.23;;
32138;SDS011;18644;48.700;9.210;2023-02-15T04:51:35;18.20;;;9.38;;
32138;SDS011;18644;48.700;9.210;2023-02-15T04:54:03;14.88;;;8.35;;
32138;SDS011;18644;48.700;9.210;2023-02-15T04:56:30;15.20;;;8.10;;
32138;SDS011;18644;48.700;9.210;2023-02-15T04:58:58;16.60;;;8.45;;
32138;SDS011;18644;48.700;9.210;2023-02-15T05:01:25;20.63;;;9.65;;
32138;SDS011;18644;48.700;9.210;2023-02-15T05:03:52;15.52;;;8.63;;
32138;SDS011;18644;48.700;9.210;2023-02-15T05:06:19;19.63;;;8.57;;
32138;SDS011;18644;48.700;9.210;2023-02-15T05:08:46;25.63;;;9.50;;
32138;SDS011;18644;48.700;9.210;2023-02-15T05:11:15;22.23;;;8.85;;
32138;SDS011;18644;48.700;9.210;2023-02-15T05:13:41;25.00;;;9.20;;
32138;SDS011;18644;48.700;9.210;2023-02-15T05:16:08;19.33;;;9.13;;
32138;SDS011;18644;48.700;9.210;2023-02-15T05:18:35;17.73;;;8.95;;
32138;SDS011;18644;48.700;9.210;2023-02-15T05:21:02;15.02;;;7.78;;
32138;SDS011;18644;48.700;9.210;2023-02-15T05:23:29;16.10;;;8.15;;
32138;SDS011;18644;48.700;9.210;2023-02-15T05:25:56;20.55;;;8.48;;
32138;SDS011;18644;48.700;9.210;2023-02-15T05:28:54;13.23;;;7.03;;
32138;SDS011;18644;48.700;9.210;2023-02-15T05:31:21;11.43;;;6.90;;
32138;SDS011;18644;48.700;9.210;2023-02-15T05:33:47;12.00;;;7.25;;
32138;SDS011;18644;48.700;9.210;2023-02-15T05:36:14;13.15;;;8.05;;
32138;SDS011;18644;48.700;9.210;2023-02-15T05:38:41;16.00;;;7.90;;
32138;SDS011;18644;48.700;9.210;2023-02-15T05:41:09;15.73;;;7.97;;
32138;SDS011;18644;48.700;9.210;2023-02-15T05:43:37;11.98;;;7.63;;
32138;SDS011;18644;48.700;9.210;2023-02-15T05:46:06;11.55;;;7.30;;
32138;SDS011;18644;48.700;9.210;2023-02-15T05:48:33;11.40;;;6.55;;
32138;SDS011;18644;48.700;9.210;2023-02-15T05:51:02;10.98;;;6.78;;
32138;SDS011;18644;48.700;9.210;2023-02-15T05:53:32;12.90;;;7.80;;
32138;SDS011;18644;48.700;9.210;2023-02-15T05:56:02;13.90;;;8.43;;
32138;SDS011;18644;48.700;9.210;2023-02-15T05:58:31;11.77;;;7.32;;
32138;SDS011;18644;48.700;9.210;2023-02-15T06:01:07;14.48;;;7.13;;
32138;SDS011;18644;48.700;9.210;2023-02-15T06:03:35;12.05;;;7.22;;
32138;SDS011;18644;48.700;9.210;2023-02-15T06:06:02;9.77;;;6.75;;
32138;SDS011;18644;48.700;9.210;2023-02-15T06:08:29;9.00;;;6.50;;
32138;SDS011;18644;48.700;9.210;2023-02-15T06:10:57;11.80;;;7.20;;
32138;SDS011;18644;48.700;9.210;2023-02-15T06:13:24;10.93;;;6.70;;
32138;SDS011;18644;48.700;9.210;2023-02-15T06:15:51;10.27;;;6.70;;
32138;SDS011;18644;48.700;9.210;2023-02-15T06:18:19;9.90;;;6.78;;
32138;SDS011;18644;48.700;9.210;2023-02-15T06:20:46;11.38;;;7.03;;
32138;SDS011;18644;48.700;9.210;2023-02-15T06:23:14;20.38;;;8.00;;
32138;SDS011;18644;48.700;9.210;2023-02-15T06:25:42;11.75;;;6.57;;
32138;SDS011;18644;48.700;9.210;2023-02-15T06:28:10;8.38;;;6.45;;
32138;SDS011;18644;48.700;9.210;2023-02-15T06:30:38;15.00;;;7.72;;
32138;SDS011;18644;48.700;9.210;2023-02-15T06:33:05;11.82;;;6.95;;
32138;SDS011;18644;48.700;9.210;2023-02-15T06:35:33;11.25;;;7.95;;
32138;SDS011;18644;48.700;9.210;2023-02-15T06:38:00;10.60;;;7.93;;
32138;SDS011;18644;48.700;9.210;2023-02-15T06:40:27;11.10;;;7.55;;
32138;SDS011;18644;48.700;9.210;2023-02-15T06:42:54;14.95;;;7.57;;
32138;SDS011;18644;48.700;9.210;2023-02-15T06:45:21;10.02;;;7.78;;
32138;SDS011;18644;48.700;9.210;2023-02-15T06:47:48;15.50;;;8.48;;
32138;SDS011;18644;48.700;9.210;2023-02-15T06:50:18;11.60;;;7.95;;
32138;SDS011;18644;48.700;9.210;2023-02-15T06:52:46;13.65;;;7.97;;
32138;SDS011;18644;48.700;9.210;2023-02-15T06:55:13;12.88;;;7.50;;
32138;SDS011;18644;48.700;9.210;2023-02-15T06:57:40;11.88;;;6.82;;
32138;SDS011;18644;48.700;9.210;2023-02-15T07:00:08;11.40;;;7.95;;
32138;SDS011;18644;48.700;9.210;2023-02-15T07:02:36;11.90;;;7.32;;
32138;SDS011;18644;48.700;9.210;2023-02-15T07:05:03;11.73;;;6.55;;
32138;SDS011;18644;48.700;9.210;2023-02-15T07:07:30;14.25;;;8.20;;
32138;SDS011;18644;48.700;9.210;2023-02-15T07:09:58;13.75;;;8.10;;
32138;SDS011;18644;48.700;9.210;2023-02-15T07:12:25;12.52;;;8.13;;
32138;SDS011;18644;48.700;9.210;2023-02-15T07:15:07;13.13;;;8.45;;
32138;SDS011;18644;48.700;9.210;2023-02-15T07:17:35;14.55;;;9.38;;
32138;SDS011;18644;48.700;9.210;2023-02-15T07:20:03;21.90;;;12.07;;
32138;SDS011;18644;48.700;9.210;2023-02-15T07:22:34;20.73;;;12.30;;
32138;SDS011;18644;48.700;9.210;2023-02-15T07:25:03;25.38;;;14.32;;
32138;SDS011;18644;48.700;9.210;2023-02-15T07:27:32;29.20;;;16.83;;
32138;SDS011;18644;48.700;9.210;2023-02-15T07:30:00;31.58;;;18.70;;
32138;SDS011;18644;48.700;9.210;2023-02-15T07:32:27;32.10;;;15.82;;
32138;SDS011;18644;48.700;9.210;2023-02-15T07:34:55;30.30;;;15.60;;
32138;SDS011;18644;48.700;9.210;2023-02-15T07:37:22;32.47;;;16.70;;
32138;SDS011;18644;48.700;9.210;2023-02-15T07:39:49;27.63;;;14.15;;
32138;SDS011;18644;48.700;9.210;2023-02-15T07:42:20;20.13;;;12.13;;
32138;SDS011;18644;48.700;9.210;2023-02-15T07:44:47;21.27;;;12.48;;
32138;SDS011;18644;48.700;9.210;2023-02-15T07:47:14;22.58;;;12.50;;
32138;SDS011;18644;48.700;9.210;2023-02-15T07:49:41;19.42;;;11.23;;
32138;SDS011;18644;48.700;9.210;2023-02-15T07:52:09;19.42;;;11.23;;
32138;SDS011;18644;48.700;9.210;2023-02-15T07:54:35;20.85;;;10.82;;
32138;SDS011;18644;48.700;9.210;2023-02-15T07:57:02;17.08;;;11.05;;
32138;SDS011;18644;48.700;9.210;2023-02-15T07:59:31;17.73;;;9.98;;
32138;SDS011;18644;48.700;9.210;2023-02-15T08:01:58;18.30;;;10.80;;
32138;SDS011;18644;48.700;9.210;2023-02-15T08:04:25;19.05;;;9.93;;
32138;SDS011;18644;48.700;9.210;2023-02-15T08:06:53;19.48;;;10.45;;
32138;SDS011;18644;48.700;9.210;2023-02-15T08:09:20;18.52;;;10.52;;
32138;SDS011;18644;48.700;9.210;2023-02-15T08:11:48;15.55;;;10.07;;
32138;SDS011;18644;48.700;9.210;2023-02-15T08:14:15;16.67;;;9.90;;
32138;SDS011;18644;48.700;9.210;2023-02-15T08:16:47;15.25;;;9.27;;
32138;SDS011;18644;48.700;9.210;2023-02-15T08:19:16;15.32;;;9.30;;
32138;SDS011;18644;48.700;9.210;2023-02-15T08:21:46;14.90;;;9.45;;
32138;SDS011;18644;48.700;9.210;2023-02-15T08:24:16;19.17;;;9.52;;
32138;SDS011;18644;48.700;9.210;2023-02-15T08:26:45;17.30;;;9.48;;
32138;SDS011;18644;48.700;9.210;2023-02-15T08:29:13;25.95;;;11.45;;
32138;SDS011;18644;48.700;9.210;2023-02-15T08:31:42;20.15;;;12.90;;
32138;SDS011;18644;48.700;9.210;2023-02-15T08:34:11;24.30;;;13.95;;
32138;SDS011;18644;48.700;9.210;2023-02-15T08:36:42;22.20;;;12.77;;
32138;SDS011;18644;48.700;9.210;2023-02-15T08:39:10;19.92;;;12.25;;
32138;SDS011;18644;48.700;9.210;2023-02-15T08:41:39;23.13;;;11.48;;
32138;SDS011;18644;48.700;9.210;2023-02-15T08:44:09;18.38;;;11.43;;
32138;SDS011;18644;48.700;9.210;2023-02-15T08:46:37;15.77;;;10.25;;
32138;SDS011;18644;48.700;9.210;2023-02-15T08:49:05;14.57;;;9.85;;
32138;SDS011;18644;48.700;9.210;2023-02-15T08:51:35;15.57;;;9.48;;
32138;SDS011;18644;48.700;9.210;2023-02-15T08:54:04;15.70;;;10.13;;
32138;SDS011;18644;48.700;9.210;2023-02-15T08:56:34;12.98;;;8.65;;
32138;SDS011;18644;48.700;9.210;2023-02-15T08:59:04;12.95;;;9.18;;
32138;SDS011;18644;48.700;9.210;2023-02-15T09:01:32;16.52;;;10.32;;
32138;SDS011;18644;48.700;9.210;2023-02-15T09:04:01;13.95;;;9.48;;
32138;SDS011;18644;48.700;9.210;2023-02-15T09:06:31;15.35;;;9.68;;
32138;SDS011;18644;48.700;9.210;2023-02-15T09:09:01;13.02;;;8.73;;
32138;SDS011;18644;48.700;9.210;2023-02-15T09:11:29;16.17;;;10.13;;
32138;SDS011;18644;48.700;9.210;2023-02-15T09:14:00;13.18;;;9.15;;
32138;SDS011;18644;48.700;9.210;2023-02-15T09:16:31;16.40;;;10.10;;
32138;SDS011;18644;48.700;9.210;2023-02-15T09:19:00;15.05;;;9.52;;
32138;SDS011;18644;48.700;9.210;2023-02-15T09:21:29;16.40;;;10.23;;
32138;SDS011;18644;48.700;9.210;2023-02-15T09:24:02;15.50;;;10.70;;
32138;SDS011;18644;48.700;9.210;2023-02-15T09:29:00;13.18;;;8.73;;
32138;SDS011;18644;48.700;9.210;2023-02-15T09:31:29;14.80;;;8.70;;
32138;SDS011;18644;48.700;9.210;2023-02-15T09:33:58;15.27;;;10.05;;
32138;SDS011;18644;48.700;9.210;2023-02-15T09:36:27;17.25;;;10.07;;
32138;SDS011;18644;48.700;9.210;2023-02-15T09:38:58;14.98;;;9.98;;
32138;SDS011;18644;48.700;9.210;2023-02-15T09:41:36;19.23;;;10.00;;
32138;SDS011;18644;48.700;9.210;2023-02-15T09:44:25;14.95;;;8.90;;
32138;SDS011;18644;48.700;9.210;2023-02-15T09:47:10;14.88;;;9.32;;
32138;SDS011;18644;48.700;9.210;2023-02-15T09:49:55;16.98;;;10.15;;
32138;SDS011;18644;48.700;9.210;2023-02-15T09:52:35;15.85;;;10.25;;
32138;SDS011;18644;48.700;9.210;2023-02-15T09:55:22;16.33;;;9.73;;
32138;SDS011;18644;48.700;9.210;2023-02-15T09:58:05;16.40;;;10.23;;
32138;SDS011;18644;48.700;9.210;2023-02-15T10:00:43;17.13;;;9.85;;
32138;SDS011;18644;48.700;9.210;2023-02-15T10:03:19;16.80;;;9.88;;
32138;SDS011;18644;48.700;9.210;2023-02-15T10:06:06;15.85;;;9.88;;
32138;SDS011;18644;48.700;9.210;2023-02-15T10:11:54;15.50;;;9.80;;
32138;SDS011;18644;48.700;9.210;2023-02-15T10:17:52;13.70;;;8.95;;
32138;SDS011;18644;48.700;9.210;2023-02-15T10:20:33;13.80;;;9.45;;
32138;SDS011;18644;48.700;9.210;2023-02-15T10:23:13;16.45;;;10.20;;
32138;SDS011;18644;48.700;9.210;2023-02-15T10:26:06;15.07;;;9.80;;
32138;SDS011;18644;48.700;9.210;2023-02-15T10:28:45;20.17;;;10.50;;
32138;SDS011;18644;48.700;9.210;2023-02-15T10:31:19;21.95;;;9.85;;
32138;SDS011;18644;48.700;9.210;2023-02-15T10:34:02;14.85;;;10.27;;
32138;SDS011;18644;48.700;9.210;2023-02-15T10:36:46;16.90;;;9.63;;
32138;SDS011;18644;48.700;9.210;2023-02-15T10:39:33;14.77;;;9.63;;
32138;SDS011;18644;48.700;9.210;2023-02-15T10:42:15;14.32;;;9.63;;
32138;SDS011;18644;48.700;9.210;2023-02-15T10:45:01;12.73;;;8.68;;
32138;SDS011;18644;48.700;9.210;2023-02-15T10:47:48;16.42;;;9.45;;
32138;SDS011;18644;48.700;9.210;2023-02-15T10:50:35;15.18;;;9.18;;
32138;SDS011;18644;48.700;9.210;2023-02-15T10:53:23;13.95;;;8.50;;
32138;SDS011;18644;48.700;9.210;2023-02-15T10:56:20;10.90;;;7.45;;
32138;SDS011;18644;48.700;9.210;2023-02-15T10:59:02;14.63;;;8.45;;
32138;SDS011;18644;48.700;9.210;2023-02-15T11:01:49;15.60;;;8.20;;
32138;SDS011;18644;48.700;9.210;2023-02-15T11:04:30;11.25;;;8.27;;
32138;SDS011;18644;48.700;9.210;2023-02-15T11:07:16;11.50;;;7.43;;
32138;SDS011;18644;48.700;9.210;2023-02-15T11:09:48;13.60;;;8.30;;
32138;SDS011;18644;48.700;9.210;2023-02-15T11:12:20;10.40;;;7.65;;
32138;SDS011;18644;48.700;9.210;2023-02-15T11:14:51;15.80;;;8.88;;
32138;SDS011;18644;48.700;9.210;2023-02-15T11:17:26;16.48;;;8.15;;
32138;SDS011;18644;48.700;9.210;2023-02-15T11:20:04;10.00;;;7.43;;
32138;SDS011;18644;48.700;9.210;2023-02-15T11:22:43;12.20;;;8.07;;
32138;SDS011;18644;48.700;9.210;2023-02-15T11:25:16;10.20;;;7.60;;
32138;SDS011;18644;48.700;9.210;2023-02-15T11:27:46;14.17;;;8.80;;
32138;SDS011;18644;48.700;9.210;2023-02-15T11:30:18;12.43;;;7.60;;
32138;SDS011;18644;48.700;9.210;2023-02-15T11:35:20;10.10;;;7.03;;
32138;SDS011;18644;48.700;9.210;2023-02-15T11:37:53;11.98;;;7.32;;
32138;SDS011;18644;48.700;9.210;2023-02-15T11:40:28;11.85;;;7.88;;
32138;SDS011;18644;48.700;9.210;2023-02-15T11:43:00;21.40;;;8.35;;
32138;SDS011;18644;48.700;9.210;2023-02-15T11:45:33;13.23;;;8.55;;
32138;SDS011;18644;48.700;9.210;2023-02-15T11:48:07;10.93;;;7.93;;
32138;SDS011;18644;48.700;9.210;2023-02-15T11:50:38;13.10;;;7.35;;
32138;SDS011;18644;48.700;9.210;2023-02-15T11:53:11;13.65;;;7.95;;
32138;SDS011;18644;48.700;9.210;2023-02-15T11:55:41;10.38;;;6.50;;
32138;SDS011;18644;48.700;9.210;2023-02-15T11:58:12;10.93;;;7.60;;
32138;SDS011;18644;48.700;9.210;2023-02-15T12:00:50;11.45;;;7.82;;
32138;SDS011;18644;48.700;9.210;2023-02-15T12:03:24;9.70;;;7.55;;
32138;SDS011;18644;48.700;9.210;2023-02-15T12:06:05;9.93;;;6.82;;
32138;SDS011;18644;48.700;9.210;2023-02-15T12:08:43;10.43;;;7.57;;
32138;SDS011;18644;48.700;9.210;2023-02-15T12:11:19;9.57;;;6.60;;
32138;SDS011;18644;48.700;9.210;2023-02-15T12:13:53;9.23;;;7.20;;
32138;SDS011;18644;48.700;9.210;2023-02-15T12:16:22;10.57;;;7.47;;
32138;SDS011;18644;48.700;9.210;2023-02-15T12:18:51;9.00;;;6.75;;
32138;SDS011;18644;48.700;9.210;2023-02-15T12:21:24;9.38;;;6.80;;
32138;SDS011;18644;48.700;9.210;2023-02-15T12:23:55;9.90;;;5.95;;
32138;SDS011;18644;48.700;9.210;2023-02-15T12:26:27;9.07;;;6.57;;
32138;SDS011;18644;48.700;9.210;2023-02-15T12:28:57;10.75;;;6.95;;
32138;SDS011;18644;48.700;9.210;2023-02-15T12:31:28;10.10;;;6.65;;
32138;SDS011;18644;48.700;9.210;2023-02-15T12:34:02;10.13;;;6.47;;
32138;SDS011;18644;48.700;9.210;2023-02-15T12:36:40;10.93;;;7.00;;
32138;SDS011;18644;48.700;9.210;2023-02-15T12:39:18;12.85;;;6.78;;
32138;SDS011;18644;48.700;9.210;2023-02-15T12:41:57;10.23;;;6.57;;
32138;SDS011;18644;48.700;9.210;2023-02-15T12:44:29;14.88;;;6.72;;
32138;SDS011;18644;48.700;9.210;2023-02-15T12:46:59;9.77;;;6.80;;
32138;SDS011;18644;48.700;9.210;2023-02-15T12:49:30;9.23;;;6.35;;
32138;SDS011;18644;48.700;9.210;2023-02-15T12:51:59;9.80;;;6.65;;
32138;SDS011;18644;48.700;9.210;2023-02-15T12:54:29;9.45;;;7.25;;
32138;SDS011;18644;48.700;9.210;2023-02-15T12:57:21;10.48;;;7.88;;
32138;SDS011;18644;48.700;9.210;2023-02-15T12:59:53;9.20;;;6.88;;
32138;SDS011;18644;48.700;9.210;2023-02-15T13:02:27;12.88;;;8.07;;
32138;SDS011;18644;48.700;9.210;2023-02-15T13:05:04;14.38;;;7.60;;
32138;SDS011;18644;48.700;9.210;2023-02-15T13:07:44;11.23;;;7.70;;
32138;SDS011;18644;48.700;9.210;2023-02-15T13:10:18;15.20;;;8.30;;
32138;SDS011;18644;48.700;9.210;2023-02-15T13:12:50;14.90;;;8.25;;
32138;SDS011;18644;48.700;9.210;2023-02-15T13:15:26;13.90;;;8.88;;
32138;SDS011;18644;48.700;9.210;2023-02-15T13:17:59;11.27;;;8.32;;
32138;SDS011;18644;48.700;9.210;2023-02-15T13:20:28;11.15;;;8.32;;
32138;SDS011;18644;48.700;9.210;2023-02-15T13:22:57;11.15;;;8.05;;
32138;SDS011;18644;48.700;9.210;2023-02-15T13:25:31;14.10;;;8.95;;
32138;SDS011;18644;48.700;9.210;2023-02-15T13:28:05;12.30;;;7.75;;
32138;SDS011;18644;48.700;9.210;2023-02-15T13:30:42;15.95;;;9.10;;
32138;SDS011;18644;48.700;9.210;2023-02-15T13:33:13;18.92;;;8.77;;
32138;SDS011;18644;48.700;9.210;2023-02-15T13:35:49;11.77;;;8.48;;
32138;SDS011;18644;48.700;9.210;2023-02-15T13:38:33;9.10;;;6.60;;
32138;SDS011;18644;48.700;9.210;2023-02-15T13:41:17;8.98;;;7.57;;
32138;SDS011;18644;48.700;9.210;2023-02-15T13:43:52;10.60;;;7.63;;
32138;SDS011;18644;48.700;9.210;2023-02-15T13:46:37;12.65;;;6.75;;
32138;SDS011;18644;48.700;9.210;2023-02-15T13:49:18;10.73;;;6.53;;
32138;SDS011;18644;48.700;9.210;2023-02-15T13:52:01;11.40;;;6.75;;
32138;SDS011;18644;48.700;9.210;2023-02-15T13:54:46;11.13;;;6.28;;
32138;SDS011;18644;48.700;9.210;2023-02-15T14:00:22;9.85;;;5.88;;
32138;SDS011;18644;48.700;9.210;2023-02-15T14:03:06;9.80;;;6.30;;
32138;SDS011;18644;48.700;9.210;2023-02-15T14:06:13;7.97;;;6.13;;
32138;SDS011;18644;48.700;9.210;2023-02-15T14:08:57;7.57;;;6.45;;
32138;SDS011;18644;48.700;9.210;2023-02-15T14:11:37;10.73;;;6.90;;
32138;SDS011;18644;48.700;9.210;2023-02-15T14:17:35;9.27;;;6.50;;
32138;SDS011;18644;48.700;9.210;2023-02-15T14:20:18;10.25;;;6.35;;
32138;SDS011;18644;48.700;9.210;2023-02-15T14:22:58;8.75;;;5.90;;
32138;SDS011;18644;48.700;9.210;2023-02-15T14:25:37;7.18;;;5.35;;
32138;SDS011;18644;48.700;9.210;2023-02-15T14:28:14;7.57;;;5.80;;
32138;SDS011;18644;48.700;9.210;2023-02-15T14:30:48;8.93;;;6.32;;
32138;SDS011;18644;48.700;9.210;2023-02-15T14:33:31;13.05;;;6.97;;
32138;SDS011;18644;48.700;9.210;2023-02-15T14:36:04;10.57;;;6.28;;
32138;SDS011;18644;48.700;9.210;2023-02-15T14:38:39;9.40;;;6.45;;
32138;SDS011;18644;48.700;9.210;2023-02-15T14:41:20;8.18;;;6.70;;
32138;SDS011;18644;48.700;9.210;2023-02-15T14:43:56;8.43;;;6.50;;
32138;SDS011;18644;48.700;9.210;2023-02-15T14:46:34;9.93;;;6.82;;
32138;SDS011;18644;48.700;9.210;2023-02-15T14:49:08;8.65;;;6.10;;
32138;SDS011;18644;48.700;9.210;2023-02-15T14:51:54;10.77;;;6.63;;
32138;SDS011;18644;48.700;9.210;2023-02-15T14:57:33;11.27;;;6.88;;
32138;SDS011;18644;48.700;9.210;2023-02-15T15:00:01;8.77;;;6.05;;
32138;SDS011;18644;48.700;9.210;2023-02-15T15:03:00;11.68;;;7.07;;
32138;SDS011;18644;48.700;9.210;2023-02-15T15:05:30;9.85;;;6.65;;
32138;SDS011;18644;48.700;9.210;2023-02-15T15:08:01;7.13;;;6.00;;
32138;SDS011;18644;48.700;9.210;2023-02-15T15:10:35;11.88;;;7.53;;
32138;SDS011;18644;48.700;9.210;2023-02-15T15:19:14;9.07;;;7.15;;
32138;SDS011;18644;48.700;9.210;2023-02-15T15:22:38;13.20;;;7.13;;
32138;SDS011;18644;48.700;9.210;2023-02-15T15:25:10;9.18;;;6.70;;
32138;SDS011;18644;48.700;9.210;2023-02-15T15:28:08;8.60;;;6.40;;
32138;SDS011;18644;48.700;9.210;2023-02-15T15:30:49;12.18;;;6.40;;
32138;SDS011;18644;48.700;9.210;2023-02-15T15:33:25;12.23;;;6.60;;
32138;SDS011;18644;48.700;9.210;2023-02-15T15:40:01;7.65;;;5.72;;
32138;SDS011;18644;48.700;9.210;2023-02-15T15:46:33;9.18;;;6.15;;
32138;SDS011;18644;48.700;9.210;2023-02-15T15:49:14;11.70;;;6.72;;
32138;SDS011;18644;48.700;9.210;2023-02-15T15:51:44;9.93;;;6.35;;